Kennicott — WCY2920 — position and weather

sailwx.info

Track history (hours):
 
Tides and Currents Weather Stations Pressure Air Temp Water Temp Dewpoint Dewpoint Depression Visibility Wind Speed Wind Dir Waves Ship Positions

Kennicott

Owner: ALASKA, STATE OF, Anchorage, AK. More information available from US FCC via Universal Licensing System and Coast Guard Vessel Documentation Center.

Last reported at 2017-Sep-20 00:30 UTC. Time now 2017-Sep-20 00:36 UTC.
Position N 58°19' W 136°09'.

Type: Ship. MMSI: 368250000.

Date/timePositionNaut miles runAvg speedWind from/ knotsBaromVisibWave heightAir tempDewpointWater temp
2017-Sep-20 00:30N 58°19' W 136°09'918.7
2017-Sep-20 00:00N 58°19' W 135°51'917.4
2017-Sep-19 23:30N 58°16' W 135°36'260 7.2
2017-Sep-18 11:27N 54°46' W 130°58'715.6
2017-Sep-18 11:00N 54°41' W 130°49'815.6
2017-Sep-18 10:29N 54°35' W 130°40'714.7
2017-Sep-18 10:00N 54°28' W 130°38'714.2
2017-Sep-18 09:30N 54°21' W 130°36'714.5
2017-Sep-18 09:00N 54°15' W 130°31'815.0
2017-Sep-18 08:30N 54°08' W 130°24'714.7
2017-Sep-18 08:00N 54°03' W 130°15'714.8
2017-Sep-18 07:30N 53°56' W 130°11'714.2
2017-Sep-18 07:00N 53°51' W 130°02'9914.1
2017-Sep-17 23:59N 52°30' W 128°27'714.9
2017-Sep-17 23:30N 52°23' W 128°31'714.1
2017-Sep-17 23:00N 52°16' W 128°30'915.3
2017-Sep-17 22:26N 52°15' W 128°16'710.3
2017-Sep-17 21:47N 52°10' W 128°08'2 6.4
2017-Sep-17 21:30N 52°08' W 128°08'912.9
2017-Sep-17 20:51N 52°04' W 127°56'515.9
2017-Sep-17 20:31N 51°59' W 127°56'917.0
2017-Sep-17 20:01N 51°50' W 127°56'917.0
2017-Sep-17 19:30N 51°42' W 127°55'817.0
2017-Sep-17 19:01N 51°33' W 127°52'816.4
2017-Sep-17 18:30N 51°25' W 127°51'816.6
2017-Sep-17 18:01N 51°17' W 127°52'816.0
2017-Sep-17 17:30N 51°09' W 127°50'816.4
2017-Sep-17 17:00N 51°04' W 127°40'815.5
2017-Sep-17 16:30N 50°58' W 127°31'815.8
2017-Sep-17 16:00N 50°53' W 127°21'816.5
2017-Sep-17 15:30N 50°49' W 127°10'916.8
2017-Sep-17 14:59N 50°44' W 126°58'816.3
2017-Sep-17 14:30N 50°39' W 126°49'3617.0
2017-Sep-17 12:23N 50°25' W 125°57'718.3
2017-Sep-17 12:00N 50°23' W 125°47'1218.4
2017-Sep-17 11:23N 50°21' W 125°29'615.6
2017-Sep-17 11:00N 50°16' W 125°24'816.7
2017-Sep-17 10:31N 50°08' W 125°21'713.3
2017-Sep-17 10:01N 50°03' W 125°14'713.2
2017-Sep-17 09:30N 49°57' W 125°09'815.8
2017-Sep-17 09:00N 49°51' W 125°00'816.1
2017-Sep-17 08:30N 49°46' W 124°51'816.7
2017-Sep-17 08:00N 49°40' W 124°42'816.4
2017-Sep-17 07:30N 49°34' W 124°33'816.5
2017-Sep-17 07:00N 49°28' W 124°24'816.4
2017-Sep-17 06:30N 49°25' W 124°13'816.7
2017-Sep-17 06:00N 49°23' W 124°00'816.4
2017-Sep-17 05:30N 49°21' W 123°48'816.5
2017-Sep-17 05:00N 49°15' W 123°39'816.4
2017-Sep-17 04:30N 49°09' W 123°30'816.4
2017-Sep-17 04:00N 49°04' W 123°21'816.4
2017-Sep-17 03:30N 48°58' W 123°11'816.6
2017-Sep-17 03:00N 48°53' W 123°01'816.8
2017-Sep-17 02:30N 48°48' W 122°52'815.6
2017-Sep-17 02:00N 48°42' W 122°43'714.3
2017-Sep-17 01:31N 48°39' W 122°34'510.5
2017-Sep-17 01:00N 48°43' W 122°31'0 0.0
2017-Sep-17 00:28N 48°43' W 122°31'0 0.0
2017-Sep-16 23:55N 48°43' W 122°31'0 0.0
2017-Sep-16 23:28N 48°43' W 122°31'0 0.0
2017-Sep-16 22:55N 48°43' W 122°31'0 0.0
2017-Sep-16 22:28N 48°43' W 122°31'0 0.0
2017-Sep-16 21:58N 48°43' W 122°31'0 0.0
2017-Sep-16 21:25N 48°43' W 122°31'0 0.0
2017-Sep-16 20:55N 48°43' W 122°31'0 0.0
2017-Sep-16 20:25N 48°43' W 122°31'0 0.0
2017-Sep-16 19:55N 48°43' W 122°31'0 0.0
2017-Sep-16 19:19N 48°43' W 122°31'0 0.0
2017-Sep-16 18:58N 48°43' W 122°31'0 0.0
2017-Sep-16 18:28N 48°43' W 122°31'0 0.0
2017-Sep-16 17:22N 48°43' W 122°31'0 0.0
2017-Sep-16 16:58N 48°43' W 122°31'0 0.0
2017-Sep-16 16:28N 48°43' W 122°31'0 0.0
2017-Sep-16 15:52N 48°43' W 122°31'0 0.0
2017-Sep-16 15:28N 48°43' W 122°31'0 0.0
2017-Sep-16 14:55N 48°43' W 122°31'0 0.4
2017-Sep-16 14:30N 48°44' W 122°31'510.1
2017-Sep-16 14:00N 48°39' W 122°34'611.7
2017-Sep-16 13:30N 48°40' W 122°43'714.1
2017-Sep-16 13:00N 48°45' W 122°49'714.5
2017-Sep-16 12:30N 48°49' W 122°59'714.4
2017-Sep-16 12:00N 48°53' W 123°07'815.1
2017-Sep-16 11:30N 48°59' W 123°16'815.4
2017-Sep-16 11:00N 49°04' W 123°24'815.1
2017-Sep-16 10:30N 49°10' W 123°32'715.0
2017-Sep-16 10:00N 49°15' W 123°39'715.0
2017-Sep-16 09:31N 49°21' W 123°47'714.7
2017-Sep-16 09:00N 49°23' W 123°58'714.7
2017-Sep-16 08:30N 49°24' W 124°09'714.4
2017-Sep-16 08:00N 49°26' W 124°20'815.1
2017-Sep-16 07:30N 49°31' W 124°29'714.6
2017-Sep-16 07:00N 49°36' W 124°37'815.2
2017-Sep-16 06:30N 49°41' W 124°46'714.9
2017-Sep-16 06:00N 49°47' W 124°54'815.2
2017-Sep-16 05:30N 49°52' W 125°02'815.1
2017-Sep-16 05:00N 49°58' W 125°10'612.8
2017-Sep-16 04:30N 50°03' W 125°15'611.3
2017-Sep-16 04:01N 50°07' W 125°21'714.2
2017-Sep-16 03:31N 50°14' W 125°23'1013.8
2017-Sep-16 02:45N 50°22' W 125°34'414.7
2017-Sep-16 02:30N 50°23' W 125°40'1314.2
2017-Sep-16 01:35N 50°26' W 125°60'314.6
2017-Sep-16 01:23N 50°27' W 126°03'616.1
2017-Sep-16 00:59N 50°29' W 126°13'816.0
2017-Sep-16 00:30N 50°30' W 126°25'815.2
2017-Sep-16 00:00N 50°31' W 126°37'612.0
2017-Sep-15 23:29N 50°36' W 126°43'815.7
2017-Sep-15 22:58N 50°42' W 126°53'715.5
2017-Sep-15 22:30N 50°46' W 127°02'816.5
2017-Sep-15 22:00N 50°50' W 127°13'816.1
2017-Sep-15 21:30N 50°54' W 127°24'815.6
2017-Sep-15 21:01N 50°59' W 127°34'815.7
2017-Sep-15 20:30N 51°05' W 127°42'815.8
2017-Sep-15 20:00N 51°11' W 127°51'816.4
2017-Sep-15 19:30N 51°19' W 127°52'816.9
2017-Sep-15 19:00N 51°27' W 127°51'917.4
2017-Sep-15 18:30N 51°36' W 127°53'917.2
2017-Sep-15 18:01N 51°44' W 127°55'816.9
2017-Sep-15 17:30N 51°53' W 127°56'917.1
2017-Sep-15 17:01N 52°01' W 127°56'611.3
2017-Sep-15 16:31N 52°04' W 128°03'611.1
2017-Sep-15 15:56N 52°10' W 128°08'3 8.0
2017-Sep-15 15:30N 52°13' W 128°09'815.8
2017-Sep-15 15:01N 52°15' W 128°22'815.4
2017-Sep-15 14:30N 52°15' W 128°34'714.5
2017-Sep-15 14:00N 52°14' W 128°46'815.9
2017-Sep-15 13:30N 52°22' W 128°49'816.5
2017-Sep-15 13:01N 52°30' W 128°52'815.9
2017-Sep-15 12:30N 52°38' W 128°55'1616.4
2017-Sep-15 11:33N 52°49' W 129°13'716.4
2017-Sep-15 11:08N 52°55' W 129°21'616.7
2017-Sep-15 10:45N 52°59' W 129°28'3117.2
2017-Sep-15 08:56N 53°26' W 129°55'817.8
2017-Sep-15 08:28N 53°31' W 130°06'817.0
2017-Sep-15 07:59N 53°36' W 130°17'816.7
2017-Sep-15 07:31N 53°40' W 130°28'816.6
2017-Sep-15 07:00N 53°46' W 130°39'816.9
2017-Sep-15 06:30N 53°51' W 130°50'816.3
2017-Sep-15 06:01N 53°58' W 130°57'816.9
2017-Sep-15 05:30N 54°07' W 130°60'917.0
2017-Sep-15 05:00N 54°15' W 131°02'816.7
2017-Sep-15 04:30N 54°23' W 131°03'816.3
2017-Sep-15 04:00N 54°32' W 131°02'916.3
2017-Sep-15 03:25N 54°41' W 131°01'716.3
2017-Sep-15 03:00N 54°48' W 131°03'251 7.4
2017-Sep-13 16:56N 58°14' W 135°23'716.5
2017-Sep-13 16:30N 58°16' W 135°35'815.8
2017-Sep-13 16:00N 58°19' W 135°49'815.7
2017-Sep-13 15:30N 58°20' W 136°04'2015.5
2017-Sep-13 14:13N 58°10' W 136°38'  
Track history (hours):
 
Tides and Currents Weather Stations Pressure Air Temp Water Temp Dewpoint Dewpoint Depression Visibility Wind Speed Wind Dir Waves Ship Positions

Kennicott

Owner: ALASKA, STATE OF, Anchorage, AK. More information available from US FCC via Universal Licensing System and Coast Guard Vessel Documentation Center.

Last reported at 2017-Sep-20 00:30 UTC. Time now 2017-Sep-20 00:36 UTC.
Position N 58°19' W 136°09'.

Type: Ship. MMSI: 368250000.

Date/timePositionNaut miles runAvg speedWind from/ knotsBaromVisibWave heightAir tempDewpointWater temp
2017-Sep-20 00:30N 58°19' W 136°09'918.7
2017-Sep-20 00:00N 58°19' W 135°51'917.4
2017-Sep-19 23:30N 58°16' W 135°36'260 7.2
2017-Sep-18 11:27N 54°46' W 130°58'715.6
2017-Sep-18 11:00N 54°41' W 130°49'815.6
2017-Sep-18 10:29N 54°35' W 130°40'714.7
2017-Sep-18 10:00N 54°28' W 130°38'714.2
2017-Sep-18 09:30N 54°21' W 130°36'714.5
2017-Sep-18 09:00N 54°15' W 130°31'815.0
2017-Sep-18 08:30N 54°08' W 130°24'714.7
2017-Sep-18 08:00N 54°03' W 130°15'714.8
2017-Sep-18 07:30N 53°56' W 130°11'714.2
2017-Sep-18 07:00N 53°51' W 130°02'9914.1
2017-Sep-17 23:59N 52°30' W 128°27'714.9
2017-Sep-17 23:30N 52°23' W 128°31'714.1
2017-Sep-17 23:00N 52°16' W 128°30'915.3
2017-Sep-17 22:26N 52°15' W 128°16'710.3
2017-Sep-17 21:47N 52°10' W 128°08'2 6.4
2017-Sep-17 21:30N 52°08' W 128°08'912.9
2017-Sep-17 20:51N 52°04' W 127°56'515.9
2017-Sep-17 20:31N 51°59' W 127°56'917.0
2017-Sep-17 20:01N 51°50' W 127°56'917.0
2017-Sep-17 19:30N 51°42' W 127°55'817.0
2017-Sep-17 19:01N 51°33' W 127°52'816.4
2017-Sep-17 18:30N 51°25' W 127°51'816.6
2017-Sep-17 18:01N 51°17' W 127°52'816.0
2017-Sep-17 17:30N 51°09' W 127°50'816.4
2017-Sep-17 17:00N 51°04' W 127°40'815.5
2017-Sep-17 16:30N 50°58' W 127°31'815.8
2017-Sep-17 16:00N 50°53' W 127°21'816.5
2017-Sep-17 15:30N 50°49' W 127°10'916.8
2017-Sep-17 14:59N 50°44' W 126°58'816.3
2017-Sep-17 14:30N 50°39' W 126°49'3617.0
2017-Sep-17 12:23N 50°25' W 125°57'718.3
2017-Sep-17 12:00N 50°23' W 125°47'1218.4
2017-Sep-17 11:23N 50°21' W 125°29'615.6
2017-Sep-17 11:00N 50°16' W 125°24'816.7
2017-Sep-17 10:31N 50°08' W 125°21'713.3
2017-Sep-17 10:01N 50°03' W 125°14'713.2
2017-Sep-17 09:30N 49°57' W 125°09'815.8
2017-Sep-17 09:00N 49°51' W 125°00'816.1
2017-Sep-17 08:30N 49°46' W 124°51'816.7
2017-Sep-17 08:00N 49°40' W 124°42'816.4
2017-Sep-17 07:30N 49°34' W 124°33'816.5
2017-Sep-17 07:00N 49°28' W 124°24'816.4
2017-Sep-17 06:30N 49°25' W 124°13'816.7
2017-Sep-17 06:00N 49°23' W 124°00'816.4
2017-Sep-17 05:30N 49°21' W 123°48'816.5
2017-Sep-17 05:00N 49°15' W 123°39'816.4
2017-Sep-17 04:30N 49°09' W 123°30'816.4
2017-Sep-17 04:00N 49°04' W 123°21'816.4
2017-Sep-17 03:30N 48°58' W 123°11'816.6
2017-Sep-17 03:00N 48°53' W 123°01'816.8
2017-Sep-17 02:30N 48°48' W 122°52'815.6
2017-Sep-17 02:00N 48°42' W 122°43'714.3
2017-Sep-17 01:31N 48°39' W 122°34'510.5
2017-Sep-17 01:00N 48°43' W 122°31'0 0.0
2017-Sep-17 00:28N 48°43' W 122°31'0 0.0
2017-Sep-16 23:55N 48°43' W 122°31'0 0.0
2017-Sep-16 23:28N 48°43' W 122°31'0 0.0
2017-Sep-16 22:55N 48°43' W 122°31'0 0.0
2017-Sep-16 22:28N 48°43' W 122°31'0 0.0
2017-Sep-16 21:58N 48°43' W 122°31'0 0.0
2017-Sep-16 21:25N 48°43' W 122°31'0 0.0
2017-Sep-16 20:55N 48°43' W 122°31'0 0.0
2017-Sep-16 20:25N 48°43' W 122°31'0 0.0
2017-Sep-16 19:55N 48°43' W 122°31'0 0.0
2017-Sep-16 19:19N 48°43' W 122°31'0 0.0
2017-Sep-16 18:58N 48°43' W 122°31'0 0.0
2017-Sep-16 18:28N 48°43' W 122°31'0 0.0
2017-Sep-16 17:22N 48°43' W 122°31'0 0.0
2017-Sep-16 16:58N 48°43' W 122°31'0 0.0
2017-Sep-16 16:28N 48°43' W 122°31'0 0.0
2017-Sep-16 15:52N 48°43' W 122°31'0 0.0
2017-Sep-16 15:28N 48°43' W 122°31'0 0.0
2017-Sep-16 14:55N 48°43' W 122°31'0 0.4
2017-Sep-16 14:30N 48°44' W 122°31'510.1
2017-Sep-16 14:00N 48°39' W 122°34'611.7
2017-Sep-16 13:30N 48°40' W 122°43'714.1
2017-Sep-16 13:00N 48°45' W 122°49'714.5
2017-Sep-16 12:30N 48°49' W 122°59'714.4
2017-Sep-16 12:00N 48°53' W 123°07'815.1
2017-Sep-16 11:30N 48°59' W 123°16'815.4
2017-Sep-16 11:00N 49°04' W 123°24'815.1
2017-Sep-16 10:30N 49°10' W 123°32'715.0
2017-Sep-16 10:00N 49°15' W 123°39'715.0
2017-Sep-16 09:31N 49°21' W 123°47'714.7
2017-Sep-16 09:00N 49°23' W 123°58'714.7
2017-Sep-16 08:30N 49°24' W 124°09'714.4
2017-Sep-16 08:00N 49°26' W 124°20'815.1
2017-Sep-16 07:30N 49°31' W 124°29'714.6
2017-Sep-16 07:00N 49°36' W 124°37'815.2
2017-Sep-16 06:30N 49°41' W 124°46'714.9
2017-Sep-16 06:00N 49°47' W 124°54'815.2
2017-Sep-16 05:30N 49°52' W 125°02'815.1
2017-Sep-16 05:00N 49°58' W 125°10'612.8
2017-Sep-16 04:30N 50°03' W 125°15'611.3
2017-Sep-16 04:01N 50°07' W 125°21'714.2
2017-Sep-16 03:31N 50°14' W 125°23'1013.8
2017-Sep-16 02:45N 50°22' W 125°34'414.7
2017-Sep-16 02:30N 50°23' W 125°40'1314.2
2017-Sep-16 01:35N 50°26' W 125°60'314.6
2017-Sep-16 01:23N 50°27' W 126°03'616.1
2017-Sep-16 00:59N 50°29' W 126°13'816.0
2017-Sep-16 00:30N 50°30' W 126°25'815.2
2017-Sep-16 00:00N 50°31' W 126°37'612.0
2017-Sep-15 23:29N 50°36' W 126°43'815.7
2017-Sep-15 22:58N 50°42' W 126°53'715.5
2017-Sep-15 22:30N 50°46' W 127°02'816.5
2017-Sep-15 22:00N 50°50' W 127°13'816.1
2017-Sep-15 21:30N 50°54' W 127°24'815.6
2017-Sep-15 21:01N 50°59' W 127°34'815.7
2017-Sep-15 20:30N 51°05' W 127°42'815.8
2017-Sep-15 20:00N 51°11' W 127°51'816.4
2017-Sep-15 19:30N 51°19' W 127°52'816.9
2017-Sep-15 19:00N 51°27' W 127°51'917.4
2017-Sep-15 18:30N 51°36' W 127°53'917.2
2017-Sep-15 18:01N 51°44' W 127°55'816.9
2017-Sep-15 17:30N 51°53' W 127°56'917.1
2017-Sep-15 17:01N 52°01' W 127°56'611.3
2017-Sep-15 16:31N 52°04' W 128°03'611.1
2017-Sep-15 15:56N 52°10' W 128°08'3 8.0
2017-Sep-15 15:30N 52°13' W 128°09'815.8
2017-Sep-15 15:01N 52°15' W 128°22'815.4
2017-Sep-15 14:30N 52°15' W 128°34'714.5
2017-Sep-15 14:00N 52°14' W 128°46'815.9
2017-Sep-15 13:30N 52°22' W 128°49'816.5
2017-Sep-15 13:01N 52°30' W 128°52'815.9
2017-Sep-15 12:30N 52°38' W 128°55'1616.4
2017-Sep-15 11:33N 52°49' W 129°13'716.4
2017-Sep-15 11:08N 52°55' W 129°21'616.7
2017-Sep-15 10:45N 52°59' W 129°28'3117.2
2017-Sep-15 08:56N 53°26' W 129°55'817.8
2017-Sep-15 08:28N 53°31' W 130°06'817.0
2017-Sep-15 07:59N 53°36' W 130°17'816.7
2017-Sep-15 07:31N 53°40' W 130°28'816.6
2017-Sep-15 07:00N 53°46' W 130°39'816.9
2017-Sep-15 06:30N 53°51' W 130°50'816.3
2017-Sep-15 06:01N 53°58' W 130°57'816.9
2017-Sep-15 05:30N 54°07' W 130°60'917.0
2017-Sep-15 05:00N 54°15' W 131°02'816.7
2017-Sep-15 04:30N 54°23' W 131°03'816.3
2017-Sep-15 04:00N 54°32' W 131°02'916.3
2017-Sep-15 03:25N 54°41' W 131°01'716.3
2017-Sep-15 03:00N 54°48' W 131°03'251 7.4
2017-Sep-13 16:56N 58°14' W 135°23'716.5
2017-Sep-13 16:30N 58°16' W 135°35'815.8
2017-Sep-13 16:00N 58°19' W 135°49'815.7
2017-Sep-13 15:30N 58°20' W 136°04'2015.5
2017-Sep-13 14:13N 58°10' W 136°38'  

Dump ship's entire track history